Terminal Aerodrome Forecast
Issued by NWS Duluth, MN

Home | Current Version | Previous Version | Text Only | Print | Product List | Glossary On
Versions: 1 2 3 4 5 6 7 8 9 10 11 12 13 14 15 16 17 18 19 20 21 22 23 24
000
FTUS43 KDLH 161600 AAC
TAFINL
TAF AMD
KINL 161601Z 1616/1712 35010KT 3SM -SN OVC018
      TEMPO 1616/1619 1 1/2SM -SN SCT015 OVC025
     FM161900 33011KT 6SM -SN BKN020 OVC035
      TEMPO 1619/1622 5SM -SN SCT020 OVC035
     FM170100 33008KT P6SM VCSH OVC015=

USA.gov is the U.S. government's official web portal to all federal, state and local government web resources and services.